Terminal Aerodrome Forecast
Issued by NWS

Home | Current Version | Previous Version | Text Only | Print | Product List | Glossary On
Versions: 1 2 3 4 5 6 7 8 9 10 11 12 13 14 15
000
FTUS45 KRIW 272321
TAFCPR
TAF
KCPR 272321Z 2800/2824 VRB06KT P6SM VCTS SCT060CB BKN090
     FM280300 VRB06KT P6SM VCSH BKN060
     FM280700 VRB05KT P6SM SCT060 BKN080
     FM281200 22012G18KT P6SM SCT110
     FM282000 26011KT P6SM SCT070 BKN120=

USA.gov is the U.S. government's official web portal to all federal, state and local government web resources and services.